Time;durP1;ratioP1;P1;durP2;ratioP2;P2;SDS_P1;SDS_P2;PMS_P1;PMS_P2;Temp;Humidity;BMP_temperature;BMP_pressure;BME280_temperature;BME280_humidity;BME280_pressure;Samples;Min_cycle;Max_cycle;Signal;HPM_P1;HPM_P2
2024/01/16 00:02:21;;;;;;;1.25;0.93;;;;;;;-0.69;40.48;101946.22;5035200;28;20049;-89
2024/01/16 00:04:50;;;;;;;2.70;1.00;;;;;;;-0.74;39.38;101945.78;5037384;28;20049;-91
2024/01/16 00:07:19;;;;;;;1.92;1.13;;;;;;;-0.79;39.49;101934.31;5036782;28;20509;-90
2024/01/16 00:09:52;;;;;;;2.05;0.93;;;;;;;-0.73;39.90;101947.59;5035451;28;20916;-88
2024/01/16 00:12:24;;;;;;;3.28;1.17;;;;;;;-0.73;39.21;101942.50;5033721;28;20144;-88
2024/01/16 00:14:54;;;;;;;4.72;1.52;;;;;;;-0.75;40.13;101932.94;5033290;28;20081;-86
2024/01/16 00:17:25;;;;;;;2.15;0.93;;;;;;;-0.78;39.78;101940.28;5028966;28;20069;-89
2024/01/16 00:20:00;;;;;;;1.48;1.08;;;;;;;-0.78;40.95;101938.66;5036955;28;20055;-88
2024/01/16 00:22:29;;;;;;;1.27;0.90;;;;;;;-0.72;42.03;101935.78;5029336;28;20045;-89
2024/01/16 00:24:58;;;;;;;0.90;0.70;;;;;;;-0.70;39.04;101932.63;5030482;28;20133;-90
2024/01/16 00:27:26;;;;;;;2.08;0.90;;;;;;;-0.82;38.64;101928.94;5034170;28;20049;-89
2024/01/16 00:30:06;;;;;;;1.75;1.00;;;;;;;-0.91;38.73;101936.59;5027099;28;20041;-90
2024/01/16 00:32:37;;;;;;;3.75;1.20;;;;;;;-0.95;38.58;101934.50;5035894;28;20046;-90
2024/01/16 00:35:07;;;;;;;2.03;1.23;;;;;;;-1.00;39.21;101929.75;5035882;28;20065;-88
2024/01/16 00:37:38;;;;;;;1.50;0.80;;;;;;;-1.10;39.73;101933.97;5034952;28;20054;-88
2024/01/16 00:40:08;;;;;;;0.80;0.52;;;;;;;-1.17;38.89;101931.59;5031709;28;20527;-88
2024/01/16 00:42:38;;;;;;;2.22;1.00;;;;;;;-1.21;39.58;101931.13;5027592;28;20482;-87
2024/01/16 00:45:07;;;;;;;1.52;0.88;;;;;;;-1.31;39.35;101922.63;5031022;28;20077;-87
2024/01/16 00:47:46;;;;;;;2.35;1.08;;;;;;;-1.52;40.31;101920.59;5033037;28;20049;-90
2024/01/16 00:50:14;;;;;;;1.13;0.77;;;;;;;-1.63;40.26;101923.72;5026696;28;20042;-85
2024/01/16 00:52:43;;;;;;;3.33;1.15;;;;;;;-1.75;40.30;101913.28;5032772;28;20041;-86
2024/01/16 00:55:12;;;;;;;1.08;0.88;;;;;;;-1.75;41.06;101926.88;5034602;28;20045;-86
2024/01/16 00:57:46;;;;;;;3.50;1.17;;;;;;;-1.83;40.62;101917.63;5030055;28;20129;-87
2024/01/16 01:00:15;;;;;;;1.02;0.60;;;;;;;-1.87;40.80;101907.03;5032173;28;20420;-84
2024/01/16 01:02:45;;;;;;;1.45;0.75;;;;;;;-2.00;42.55;101898.19;5029145;28;20045;-86
2024/01/16 01:05:14;;;;;;;2.65;0.63;;;;;;;-2.13;41.61;101900.28;5033417;28;20041;-86
2024/01/16 01:07:50;;;;;;;0.60;0.40;;;;;;;-2.23;41.97;101895.94;5032255;28;20064;-87
2024/01/16 01:10:19;;;;;;;1.80;0.73;;;;;;;-2.29;42.35;101905.50;5029306;28;20042;-87
2024/01/16 01:12:48;;;;;;;2.83;1.08;;;;;;;-2.35;41.78;101902.34;5015727;28;20045;-84
2024/01/16 01:15:17;;;;;;;1.52;1.20;;;;;;;-2.34;43.01;101904.13;5026128;28;20606;-85
2024/01/16 01:17:54;;;;;;;1.80;0.93;;;;;;;-2.34;42.75;101905.06;5024373;28;20049;-84
2024/01/16 01:20:25;;;;;;;1.55;1.10;;;;;;;-2.35;41.60;101898.16;5028240;28;20056;-86
2024/01/16 01:22:53;;;;;;;1.83;0.88;;;;;;;-2.42;42.36;101895.78;5032240;28;20145;-86
2024/01/16 01:25:22;;;;;;;2.45;0.70;;;;;;;-2.48;41.37;101889.19;5026051;28;20053;-88
2024/01/16 01:27:54;;;;;;;1.50;1.15;;;;;;;-2.53;41.87;101896.34;5036476;28;20152;-90
2024/01/16 01:30:23;;;;;;;4.45;0.75;;;;;;;-2.54;42.29;101909.78;5031188;28;20049;-91
2024/01/16 01:32:53;;;;;;;1.08;0.63;;;;;;;-2.58;43.67;101917.78;5036604;28;20286;-87
2024/01/16 01:38:08;;;;;;;3.65;0.93;;;;;;;-2.61;43.72;101927.59;5035611;28;20077;-86
2024/01/16 01:40:36;;;;;;;3.40;0.77;;;;;;;-2.63;43.59;101918.97;5034928;28;20046;-87
2024/01/16 01:43:19;;;;;;;3.10;1.52;;;;;;;-2.63;43.11;101912.25;5027665;28;20425;-90
2024/01/16 01:45:55;;;;;;;1.45;1.13;;;;;;;-2.61;43.22;101912.41;5042019;28;20049;-93
2024/01/16 01:48:35;;;;;;;;;;;;;;;;;;;;;
2024/01/16 01:51:05;;;;;;;6.60;1.38;;;;;;;-2.70;42.54;101888.69;5031179;28;20064;-84
2024/01/16 01:53:35;;;;;;;1.00;0.73;;;;;;;-2.72;42.75;101882.59;5035112;28;20060;-83
2024/01/16 01:56:10;;;;;;;2.50;1.20;;;;;;;-2.77;42.61;101885.53;5034620;28;20075;-88
2024/01/16 01:58:40;;;;;;;3.20;0.98;;;;;;;-2.81;42.31;101874.94;5035527;28;20045;-86
2024/01/16 02:01:09;;;;;;;0.68;0.63;;;;;;;-2.85;41.95;101883.88;5037801;28;20045;-85
2024/01/16 02:03:48;;;;;;;0.98;0.57;;;;;;;-2.90;43.22;101891.75;5035237;28;20420;-89
2024/01/16 02:06:26;;;;;;;1.13;0.90;;;;;;;-3.03;42.58;101909.84;5034026;28;20056;-88
2024/01/16 02:08:55;;;;;;;2.72;1.05;;;;;;;-3.03;43.93;101903.16;5033956;28;20548;-88
2024/01/16 02:11:24;;;;;;;2.25;1.38;;;;;;;-3.00;43.59;101900.94;5035202;28;20046;-89
2024/01/16 02:14:03;;;;;;;1.67;0.60;;;;;;;-3.00;42.60;101897.50;5027953;28;20053;-87
2024/01/16 02:16:38;;;;;;;3.42;1.25;;;;;;;-2.96;43.89;101907.22;5027427;28;20124;-87
2024/01/16 02:19:21;;;;;;;1.25;0.57;;;;;;;-3.05;43.83;101906.28;5034067;28;20042;-86
2024/01/16 02:21:51;;;;;;;1.17;0.68;;;;;;;-3.07;43.11;101898.53;5031593;28;20132;-85
2024/01/16 02:24:22;;;;;;;2.38;1.10;;;;;;;-3.12;42.83;101888.66;5033264;28;20045;-86
2024/01/16 02:26:53;;;;;;;1.38;0.90;;;;;;;-3.08;43.28;101890.78;5030951;28;20045;-86
2024/01/16 02:29:21;;;;;;;1.80;0.77;;;;;;;-3.11;43.01;101896.44;5030374;28;20050;-85
2024/01/16 02:31:50;;;;;;;4.00;1.25;;;;;;;-3.10;43.51;101889.72;5035946;28;20084;-86
2024/01/16 02:34:19;;;;;;;3.28;1.35;;;;;;;-3.10;42.42;101884.66;5038939;28;20038;-90
2024/01/16 02:36:48;;;;;;;2.47;1.15;;;;;;;-3.16;42.08;101875.72;5028637;28;20513;-85
2024/01/16 02:39:20;;;;;;;2.08;0.60;;;;;;;-3.14;43.73;101882.53;5030698;28;20057;-87
2024/01/16 02:41:51;;;;;;;2.33;1.52;;;;;;;-3.18;43.95;101872.13;5030472;28;20056;-86
2024/01/16 02:44:19;;;;;;;2.40;0.93;;;;;;;-3.24;42.48;101863.88;5034619;28;20126;-86
2024/01/16 02:46:48;;;;;;;1.70;0.50;;;;;;;-3.33;43.97;101860.41;5035074;28;20180;-88
2024/01/16 02:49:25;;;;;;;2.08;0.95;;;;;;;-3.40;43.06;101865.59;5030947;28;20057;-87
2024/01/16 02:51:54;;;;;;;3.40;0.85;;;;;;;-3.37;43.53;101870.97;5028068;28;20045;-86
2024/01/16 02:54:23;;;;;;;1.98;1.33;;;;;;;-3.38;44.12;101872.59;5029348;28;20060;-86
2024/01/16 02:56:53;;;;;;;0.70;0.60;;;;;;;-3.46;44.22;101862.41;5030406;28;20046;-87
2024/01/16 02:59:30;;;;;;;2.17;0.80;;;;;;;-3.57;43.32;101866.41;5029875;28;20054;-86
2024/01/16 03:01:59;;;;;;;4.50;1.83;;;;;;;-3.55;44.65;101889.31;5027837;28;20073;-86
2024/01/16 03:04:27;;;;;;;2.25;0.80;;;;;;;-3.54;46.71;101896.19;5034017;28;20049;-86
2024/01/16 03:07:07;;;;;;;;;;;;;;;;;;;;;
2024/01/16 03:09:36;;;;;;;1.83;0.93;;;;;;;-3.50;43.91;101890.69;5027558;28;20038;-87
2024/01/16 03:12:09;;;;;;;0.22;0.22;;;;;;;-3.53;45.56;101883.66;5025636;28;20056;-86
2024/01/16 03:14:42;;;;;;;;;;;;;;;-3.52;41.96;101889.66;5025227;28;20092;-86
2024/01/16 03:17:15;;;;;;;;;;;;;;;-3.52;43.59;101887.13;5027119;28;19929;-88
2024/01/16 03:19:44;;;;;;;2.58;1.30;;;;;;;-3.55;44.52;101886.78;5027663;28;19925;-86
2024/01/16 03:22:13;;;;;;;1.38;0.77;;;;;;;-3.57;44.25;101891.69;5029459;28;20069;-86
2024/01/16 03:24:52;;;;;;;5.70;1.63;;;;;;;-3.60;44.19;101887.22;5033617;28;20460;-87
2024/01/16 03:27:23;;;;;;;0.85;0.70;;;;;;;-3.63;43.88;101879.28;5036778;28;20045;-89
2024/01/16 03:29:53;;;;;;;1.65;0.85;;;;;;;-3.63;42.83;101874.22;5031135;28;20042;-90
2024/01/16 03:32:35;;;;;;;1.92;1.05;;;;;;;-3.68;43.01;101867.81;5034096;28;20137;-89
2024/01/16 03:35:03;;;;;;;2.38;1.30;;;;;;;-3.64;43.09;101864.88;5039841;28;20045;-89
2024/01/16 03:37:32;;;;;;;1.45;1.15;;;;;;;-3.67;43.15;101869.59;5037479;28;20095;-90
2024/01/16 03:40:14;;;;;;;1.17;0.52;;;;;;;-3.69;43.24;101871.06;5035279;28;20056;-89
2024/01/16 03:42:45;;;;;;;0.90;0.83;;;;;;;-3.67;43.12;101877.16;5038055;28;20072;-88
2024/01/16 03:45:15;;;;;;;1.67;1.02;;;;;;;-3.64;42.95;101890.16;5039484;28;20287;-88
2024/01/16 03:47:50;;;;;;;1.60;0.30;;;;;;;-3.66;45.55;101886.56;5029453;28;20046;-88
2024/01/16 03:50:20;;;;;;;0.75;0.68;;;;;;;-3.69;43.22;101871.06;5039819;28;20049;-89
2024/01/16 03:52:48;;;;;;;1.35;1.00;;;;;;;-3.77;43.74;101854.22;5038783;28;20084;-88
2024/01/16 03:55:18;;;;;;;1.40;0.75;;;;;;;-3.82;43.50;101857.91;5039462;28;20184;-91
2024/01/16 03:58:02;;;;;;;2.38;1.17;;;;;;;-3.78;43.52;101862.50;5037449;28;20053;-90
2024/01/16 04:00:30;;;;;;;;;;;;;;;-3.80;44.43;101869.97;5034412;28;20058;-88
2024/01/16 04:02:59;;;;;;;2.10;0.98;;;;;;;-3.87;44.14;101866.59;5035373;28;19956;-87
2024/01/16 04:05:32;;;;;;;2.05;0.68;;;;;;;-3.86;44.76;101859.19;5034137;28;20056;-87
2024/01/16 04:08:01;;;;;;;4.32;1.40;;;;;;;-3.93;45.20;101864.34;5035847;28;20488;-87
2024/01/16 04:10:30;;;;;;;2.55;0.70;;;;;;;-3.91;44.19;101883.09;5035159;28;20060;-89
2024/01/16 04:15:44;;;;;;;1.65;0.95;;;;;;;-3.96;45.29;101894.38;5028777;28;20053;-90
2024/01/16 04:18:14;;;;;;;1.45;1.35;;;;;;;-3.98;45.90;101879.78;5033207;28;20049;-90
2024/01/16 04:20:43;;;;;;;1.13;0.88;;;;;;;-3.91;45.77;101874.63;5032308;28;20049;-89
2024/01/16 04:23:14;;;;;;;2.47;0.85;;;;;;;-3.94;44.43;101867.63;5037445;28;20079;-89
2024/01/16 04:25:43;;;;;;;2.70;0.82;;;;;;;-3.90;45.03;101863.78;5035105;28;20141;-89
2024/01/16 04:28:14;;;;;;;3.65;1.15;;;;;;;-3.84;44.99;101864.41;5037963;28;20117;-88
2024/01/16 04:30:43;;;;;;;0.70;0.60;;;;;;;-3.84;44.53;101855.19;5037612;28;20054;-90
2024/01/16 04:33:17;;;;;;;2.60;1.15;;;;;;;-3.86;45.38;101858.31;5029991;28;20125;-88
2024/01/16 04:35:47;;;;;;;3.45;1.42;;;;;;;-3.83;45.61;101858.63;5035410;28;20072;-92
2024/01/16 04:38:16;;;;;;;1.85;0.57;;;;;;;-3.85;45.34;101857.56;5037541;28;20084;-90
2024/01/16 04:40:45;;;;;;;1.52;0.60;;;;;;;-3.94;45.47;101851.53;5033640;28;20050;-88
2024/01/16 04:43:25;;;;;;;1.10;0.55;;;;;;;-3.90;44.81;101858.72;5032564;28;20068;-90
2024/01/16 04:45:53;;;;;;;5.45;1.13;;;;;;;-3.90;44.36;101864.66;5029819;28;20037;-89
2024/01/16 04:48:22;;;;;;;2.28;0.52;;;;;;;-3.98;44.98;101864.63;5031385;28;20080;-91
2024/01/16 04:50:51;;;;;;;2.85;1.00;;;;;;;-4.02;45.75;101860.84;5034954;28;20116;-89
2024/01/16 04:53:23;;;;;;;3.78;1.25;;;;;;;-4.02;46.15;101841.53;5029317;28;20136;-90
2024/01/16 04:55:52;;;;;;;1.35;0.77;;;;;;;-4.13;44.91;101823.44;5033007;28;20047;-90
2024/01/16 04:58:23;;;;;;;2.03;1.15;;;;;;;-4.06;46.31;101841.94;5032887;28;20074;-88
2024/01/16 05:00:52;;;;;;;0.95;0.60;;;;;;;-4.06;46.02;101830.94;5035881;28;20053;-88
2024/01/16 05:03:25;;;;;;;3.95;1.35;;;;;;;-4.05;45.37;101831.09;5028395;28;20095;-85
2024/01/16 05:05:55;;;;;;;1.95;0.93;;;;;;;-4.01;46.27;101829.78;5030663;28;20132;-87
2024/01/16 05:08:24;;;;;;;1.70;0.75;;;;;;;-4.03;46.82;101821.16;5039078;28;20048;-85
2024/01/16 05:10:58;;;;;;;1.20;0.90;;;;;;;-4.09;45.83;101823.94;5034081;28;20046;-89
2024/01/16 05:13:31;;;;;;;3.08;1.33;;;;;;;-4.11;45.92;101812.75;5034011;28;20061;-90
2024/01/16 05:16:00;;;;;;;1.38;1.15;;;;;;;-4.12;45.92;101831.19;5037370;28;20072;-88
2024/01/16 05:18:29;;;;;;;2.83;0.90;;;;;;;-4.08;45.93;101857.66;5040845;28;20064;-89
2024/01/16 05:21:03;;;;;;;2.80;1.13;;;;;;;-4.13;47.01;101831.03;5037956;28;20067;-86
2024/01/16 05:23:32;;;;;;;1.35;0.98;;;;;;;-4.13;46.15;101821.81;5037519;28;20057;-88
2024/01/16 05:26:04;;;;;;;3.70;1.15;;;;;;;-4.13;47.01;101831.91;5035785;28;20066;-87
2024/01/16 05:28:36;;;;;;;0.88;0.63;;;;;;;-4.15;45.98;101815.69;5036896;28;20140;-88
2024/01/16 05:31:12;;;;;;;2.45;1.10;;;;;;;-4.08;46.27;101820.66;5032781;28;20053;-87
2024/01/16 05:33:41;;;;;;;1.25;0.70;;;;;;;-4.10;46.05;101832.25;5034962;28;20064;-87
2024/01/16 05:36:10;;;;;;;2.25;0.75;;;;;;;-4.12;46.26;101831.19;5036921;28;20046;-85
2024/01/16 05:38:39;;;;;;;2.38;1.15;;;;;;;-4.19;46.25;101798.44;5039193;28;20062;-86
2024/01/16 05:41:16;;;;;;;3.00;1.23;;;;;;;-4.15;46.88;101800.53;5045374;28;20052;-88
2024/01/16 05:43:47;;;;;;;4.32;0.93;;;;;;;-4.18;47.40;101805.28;5037247;28;20053;-87
2024/01/16 05:46:17;;;;;;;2.50;0.80;;;;;;;-4.20;46.82;101806.72;5039248;28;20049;-90
2024/01/16 05:49:03;;;;;;;3.63;1.50;;;;;;;-4.21;46.79;101810.00;5034862;28;20048;-89
2024/01/16 05:51:32;;;;;;;1.63;0.75;;;;;;;-4.22;46.48;101829.31;5036281;28;20117;-89
2024/01/16 05:54:12;;;;;;;1.88;0.93;;;;;;;-4.20;46.45;101829.47;5039585;28;20119;-91
2024/01/16 05:56:41;;;;;;;2.92;0.82;;;;;;;-4.26;47.15;101801.03;5037667;28;20145;-90
2024/01/16 05:59:12;;;;;;;2.75;1.20;;;;;;;-4.24;46.93;101803.00;5041244;28;20053;-89
2024/01/16 06:01:41;;;;;;;1.27;0.80;;;;;;;-4.28;47.39;101792.41;5033541;28;20061;-90
2024/01/16 06:04:17;;;;;;;2.10;1.08;;;;;;;-4.27;46.49;101805.19;5035530;28;20080;-88
2024/01/16 06:06:47;;;;;;;1.02;0.82;;;;;;;-4.21;47.03;101813.44;5031252;28;20073;-88
2024/01/16 06:09:18;;;;;;;2.80;0.85;;;;;;;-4.25;48.11;101807.88;5032645;28;20046;-88
2024/01/16 06:11:55;;;;;;;1.65;1.30;;;;;;;-4.31;46.31;101807.22;5029456;28;20492;-86
2024/01/16 06:19:40;;;;;;;0.77;0.77;;;;;;;-4.31;47.02;101812.28;5931694;22;20139;-90
2024/01/16 06:22:11;;;;;;;2.95;1.15;;;;;;;-4.30;46.98;101814.09;5036881;28;20053;-85
2024/01/16 06:24:40;;;;;;;1.35;0.77;;;;;;;-4.34;46.52;101801.88;5034946;28;20084;-84
2024/01/16 06:27:18;;;;;;;0.65;0.45;;;;;;;-4.31;47.40;101803.06;5026530;28;20128;-85
2024/01/16 06:29:54;;;;;;;1.67;1.13;;;;;;;-4.31;47.34;101812.28;5032064;28;20069;-88
2024/01/16 06:35:05;;;;;;;4.95;1.25;;;;;;;-4.33;47.30;101813.75;5097610;22;20060;-86
2024/01/16 06:37:35;;;;;;;4.07;1.65;;;;;;;-4.35;47.85;101812.69;5056070;28;20064;-85
2024/01/16 06:40:04;;;;;;;4.05;1.75;;;;;;;-4.33;47.74;101808.69;5049089;28;20393;-87
2024/01/16 06:42:36;;;;;;;2.70;1.00;;;;;;;-4.31;48.06;101798.03;5055676;28;20060;-85
2024/01/16 06:45:06;;;;;;;1.73;1.15;;;;;;;-4.32;48.20;101786.13;5057221;28;20060;-86
2024/01/16 06:47:35;;;;;;;3.10;1.05;;;;;;;-4.32;48.23;101792.81;5056435;28;20056;-87
2024/01/16 06:50:19;;;;;;;1.88;1.10;;;;;;;-4.37;48.12;101776.28;5051188;28;20049;-86
2024/01/16 06:52:48;;;;;;;2.08;0.93;;;;;;;-4.34;48.25;101774.06;5052115;28;20512;-86
2024/01/16 06:55:17;;;;;;;2.20;1.00;;;;;;;-4.34;47.55;101774.06;5051419;28;20052;-88
2024/01/16 06:57:46;;;;;;;2.38;0.93;;;;;;;-4.39;47.83;101772.72;5051813;28;20045;-86
2024/01/16 07:00:19;;;;;;;2.05;0.80;;;;;;;-4.43;48.50;101786.63;5052251;28;20057;-86
2024/01/16 07:02:48;;;;;;;2.45;1.00;;;;;;;-4.42;47.22;101812.06;5053867;28;20122;-85
2024/01/16 07:05:20;;;;;;;0.98;0.70;;;;;;;-4.45;47.53;101819.31;5051714;28;20045;-85
2024/01/16 07:07:49;;;;;;;2.45;1.15;;;;;;;-4.45;48.38;101819.31;5051589;28;20072;-85
2024/01/16 07:10:24;;;;;;;1.58;0.70;;;;;;;-4.52;49.76;101806.75;5049872;28;20140;-85
2024/01/16 07:12:53;;;;;;;1.77;1.42;;;;;;;-4.51;48.05;101797.53;5042062;28;20053;-86
2024/01/16 07:15:23;;;;;;;1.38;0.82;;;;;;;-4.50;48.91;101809.47;5048410;28;20052;-85
2024/01/16 07:17:55;;;;;;;1.17;0.55;;;;;;;-4.52;48.24;101795.75;5043086;28;20110;-86
2024/01/16 07:20:34;;;;;;;6.77;0.63;;;;;;;-4.52;48.44;101791.59;5052820;28;20049;-88
2024/01/16 07:23:03;;;;;;;2.08;0.60;;;;;;;-4.47;48.07;101808.13;5051573;28;20063;-86
2024/01/16 07:25:43;;;;;;;5.43;0.60;;;;;;;-4.46;48.74;101792.25;5050410;28;20115;-86
2024/01/16 07:28:12;;;;;;;2.33;0.60;;;;;;;-4.48;47.90;101782.72;5050509;28;20059;-86
2024/01/16 07:30:41;;;;;;;0.98;0.40;;;;;;;-4.49;47.37;101791.03;5050818;28;20045;-85
2024/01/16 07:33:11;;;;;;;3.25;0.90;;;;;;;-4.52;48.48;101776.44;5050769;28;20069;-87
2024/01/16 07:35:52;;;;;;;1.48;1.27;;;;;;;-4.51;48.72;101768.16;5051479;28;20056;-84
2024/01/16 07:38:21;;;;;;;1.40;0.95;;;;;;;-4.53;48.34;101757.00;5052600;28;20053;-87
2024/01/16 07:40:49;;;;;;;1.30;1.05;;;;;;;-4.57;48.42;101752.34;5042929;28;20175;-85
2024/01/16 07:43:24;;;;;;;0.40;0.30;;;;;;;-4.54;49.23;101757.69;5052763;28;20500;-87
2024/01/16 07:45:53;;;;;;;2.95;1.02;;;;;;;-4.56;47.91;101738.97;5051256;28;20131;-86
2024/01/16 07:48:22;;;;;;;1.48;0.50;;;;;;;-4.58;48.73;101724.38;5055341;28;20029;-86
2024/01/16 07:50:54;;;;;;;1.48;0.40;;;;;;;-4.62;48.43;101730.75;5046262;28;20075;-87
2024/01/16 07:53:28;;;;;;;2.20;0.70;;;;;;;-4.67;48.88;101737.84;5057266;28;20083;-86
2024/01/16 07:55:57;;;;;;;2.35;0.73;;;;;;;-4.70;48.66;101718.94;5053592;28;20064;-87
2024/01/16 07:58:27;;;;;;;1.52;0.32;;;;;;;-4.76;48.04;101723.38;5049127;28;20049;-86
2024/01/16 08:00:56;;;;;;;1.73;0.95;;;;;;;-4.76;48.79;101718.31;5048513;28;20053;-86
2024/01/16 08:03:30;;;;;;;0.95;0.80;;;;;;;-4.84;48.46;101725.94;5053118;28;20060;-85
2024/01/16 08:06:02;;;;;;;2.65;0.75;;;;;;;-4.78;48.78;101742.50;5046731;28;20111;-87
2024/01/16 08:08:33;;;;;;;0.95;0.65;;;;;;;-4.79;50.01;101754.22;5043979;28;20072;-86
2024/01/16 08:11:11;;;;;;;1.63;1.25;;;;;;;-4.81;49.71;101748.13;5052567;28;20050;-85
2024/01/16 08:13:40;;;;;;;1.45;0.95;;;;;;;-4.79;49.60;101743.22;5046597;28;20065;-85
2024/01/16 08:16:09;;;;;;;1.48;0.75;;;;;;;-4.87;48.22;101740.78;5045011;28;20050;-86
2024/01/16 08:18:38;;;;;;;1.95;1.52;;;;;;;-4.84;49.57;101746.16;5052766;28;22514;-86
2024/01/16 08:21:15;;;;;;;1.48;0.77;;;;;;;-4.86;49.16;101726.53;5058657;28;20073;-87
2024/01/16 08:23:45;;;;;;;0.85;0.85;;;;;;;-4.82;49.47;101735.34;5051785;28;20057;-86
2024/01/16 08:26:14;;;;;;;1.52;0.75;;;;;;;-4.82;49.41;101738.75;5050070;28;20052;-87
2024/01/16 08:28:48;;;;;;;0.85;0.55;;;;;;;-4.84;49.37;101720.91;5052383;28;20061;-86
2024/01/16 08:31:20;;;;;;;1.98;0.68;;;;;;;-4.78;49.72;101719.78;5055510;28;20087;-86
2024/01/16 08:33:49;;;;;;;0.73;0.57;;;;;;;-4.82;48.80;101700.00;5052096;28;20106;-86
2024/01/16 08:36:20;;;;;;;2.47;1.10;;;;;;;-4.81;49.62;101690.06;5050466;28;20041;-86
2024/01/16 08:39:00;;;;;;;2.20;1.15;;;;;;;-4.80;48.79;101681.75;5054374;28;20053;-86
2024/01/16 08:41:29;;;;;;;1.00;0.90;;;;;;;-4.80;49.68;101685.91;5055527;28;20061;-86
2024/01/16 08:43:58;;;;;;;1.13;1.02;;;;;;;-4.80;49.42;101699.41;5055472;28;20049;-86
2024/01/16 08:46:37;;;;;;;1.40;0.85;;;;;;;-4.83;49.91;101701.63;5051184;28;20492;-85
2024/01/16 08:49:07;;;;;;;2.30;1.38;;;;;;;-4.80;49.25;101711.16;5050912;28;20111;-85
2024/01/16 08:51:38;;;;;;;0.95;0.57;;;;;;;-4.78;49.63;101709.69;5050446;28;20517;-86
2024/01/16 08:54:18;;;;;;;1.00;0.75;;;;;;;-4.86;49.41;101701.28;5043967;28;20053;-88
2024/01/16 08:56:48;;;;;;;1.33;0.60;;;;;;;-4.85;48.89;101701.47;5050202;28;20043;-87
2024/01/16 08:59:17;;;;;;;1.95;1.20;;;;;;;-4.84;49.17;101698.19;5049202;28;20071;-87
2024/01/16 09:01:55;;;;;;;1.05;0.50;;;;;;;-4.88;49.02;101698.63;5052874;28;20073;-85
2024/01/16 09:04:24;;;;;;;0.65;0.43;;;;;;;-4.89;49.83;101691.75;5042906;28;20057;-85
2024/01/16 09:06:55;;;;;;;0.95;0.30;;;;;;;-4.82;48.80;101697.47;5049210;28;20120;-85
2024/01/16 09:09:24;;;;;;;1.48;1.10;;;;;;;-4.80;49.47;101706.09;5046774;28;20114;-86
2024/01/16 09:12:03;;;;;;;3.78;1.15;;;;;;;-4.80;50.17;101698.53;5047053;28;20060;-87
2024/01/16 09:14:32;;;;;;;2.92;1.50;;;;;;;-4.77;48.89;101709.81;5041935;28;20061;-86
2024/01/16 09:17:01;;;;;;;3.70;1.02;;;;;;;-4.79;49.21;101698.66;5042025;28;20053;-85
2024/01/16 09:19:39;;;;;;;0.20;0.20;;;;;;;-4.75;49.36;101692.31;5053866;28;20063;-86
2024/01/16 09:22:10;;;;;;;0.70;0.30;;;;;;;-4.74;50.18;101691.56;5050349;28;20073;-85
2024/01/16 09:24:39;;;;;;;1.85;0.63;;;;;;;-4.73;50.21;101689.22;5052207;28;20056;-85
2024/01/16 09:27:09;;;;;;;2.00;1.23;;;;;;;-4.73;48.20;101685.81;5046296;28;20052;-86
2024/01/16 09:29:48;;;;;;;2.17;0.73;;;;;;;-4.77;47.57;101677.00;5051944;28;20057;-86
2024/01/16 09:32:17;;;;;;;2.38;0.85;;;;;;;-4.74;48.25;101673.91;5048154;28;20049;-86
2024/01/16 09:34:45;;;;;;;3.00;1.27;;;;;;;-4.74;48.49;101681.47;5052355;28;20057;-85
2024/01/16 09:37:22;;;;;;;1.45;1.05;;;;;;;-4.73;49.14;101684.16;5049038;28;20060;-87
2024/01/16 09:39:53;;;;;;;1.70;0.80;;;;;;;-4.72;49.07;101678.41;5047299;28;20049;-85
2024/01/16 09:42:22;;;;;;;5.10;1.13;;;;;;;-4.72;50.00;101691.03;5052852;28;20048;-86
2024/01/16 09:44:52;;;;;;;3.03;0.95;;;;;;;-4.71;49.18;101696.97;5050273;28;20183;-86
2024/01/16 09:47:31;;;;;;;0.73;0.70;;;;;;;-4.80;48.43;101689.31;5052053;28;20050;-86
2024/01/16 09:50:02;;;;;;;1.58;0.70;;;;;;;-4.74;49.57;101695.03;5055194;28;20049;-86
2024/01/16 09:55:17;;;;;;;2.92;1.27;;;;;;;-4.69;49.95;101698.91;5047180;28;20063;-83
2024/01/16 09:57:48;;;;;;;1.73;0.88;;;;;;;-4.69;49.74;101705.59;5047912;28;20053;-84
2024/01/16 10:00:24;;;;;;;1.52;0.98;;;;;;;-4.74;48.67;101681.47;5044048;28;20123;-85
2024/01/16 10:02:53;;;;;;;1.95;0.98;;;;;;;-4.69;49.09;101701.44;5049590;28;20053;-85
2024/01/16 10:05:22;;;;;;;3.60;1.15;;;;;;;-4.68;48.91;101697.28;5042535;28;20136;-84
2024/01/16 10:07:59;;;;;;;1.38;1.27;;;;;;;-4.61;49.44;101706.41;5054937;28;20076;-84
2024/01/16 10:10:28;;;;;;;3.17;0.60;;;;;;;-4.61;50.50;101704.75;5052068;28;20064;-85
2024/01/16 10:12:58;;;;;;;1.55;0.75;;;;;;;-4.63;49.97;101706.22;5039422;28;20045;-85
2024/01/16 10:15:27;;;;;;;4.75;0.77;;;;;;;-4.57;50.03;101701.81;5049467;28;20057;-85
2024/01/16 10:20:38;;;;;;;2.05;1.02;;;;;;;-4.53;49.65;101691.31;5049808;28;20045;-85
2024/01/16 10:23:10;;;;;;;1.80;0.93;;;;;;;-4.51;48.57;101692.38;5050367;28;20053;-86
2024/01/16 10:25:46;;;;;;;11.30;1.42;;;;;;;-4.48;48.35;101692.69;5052822;28;20461;-85
2024/01/16 10:28:22;;;;;;;2.78;0.95;;;;;;;-4.50;48.64;101681.53;5053425;28;20056;-86
2024/01/16 10:31:11;;;;;;;2.67;1.10;;;;;;;-4.50;49.12;101673.94;5047402;28;20053;-86
2024/01/16 10:33:41;;;;;;;1.33;0.60;;;;;;;-4.47;48.74;101684.34;5053639;28;20121;-86
2024/01/16 10:36:20;;;;;;;3.13;1.20;;;;;;;-4.43;48.06;101695.69;5050756;28;20053;-85
2024/01/16 10:38:57;;;;;;;2.97;1.05;;;;;;;-4.44;48.19;101696.44;5052742;28;20060;-85
2024/01/16 10:41:26;;;;;;;2.88;1.10;;;;;;;-4.45;47.58;101694.63;5051076;28;20057;-86
2024/01/16 10:44:07;;;;;;;2.58;0.68;;;;;;;-4.48;48.28;101692.69;5053016;28;20063;-87
2024/01/16 10:46:37;;;;;;;1.17;0.80;;;;;;;-4.53;46.24;101692.97;5053493;28;20053;-87
2024/01/16 10:49:06;;;;;;;1.65;1.50;;;;;;;-4.54;47.57;101692.03;5055480;28;20052;-87
2024/01/16 10:51:39;;;;;;;2.22;0.93;;;;;;;-4.53;48.37;101692.97;5053660;28;20049;-87
2024/01/16 10:54:19;;;;;;;0.80;0.68;;;;;;;-4.53;47.27;101678.69;5054514;28;20052;-86
2024/01/16 10:56:48;;;;;;;3.78;1.13;;;;;;;-4.54;48.17;101689.50;5047695;28;20048;-85
2024/01/16 10:59:35;;;;;;;1.13;0.80;;;;;;;-4.58;47.47;101663.78;5055768;28;20052;-86
2024/01/16 11:02:06;;;;;;;3.05;0.70;;;;;;;-4.58;47.83;101667.22;5057321;28;20041;-86
2024/01/16 11:04:46;;;;;;;2.67;1.33;;;;;;;-4.64;46.91;101653.94;5056964;28;20049;-86
2024/01/16 11:07:16;;;;;;;1.60;0.88;;;;;;;-4.60;47.35;101661.13;5049343;28;20041;-84
2024/01/16 11:20:10;;;;;;;1.77;0.80;;;;;;;-4.59;47.93;101655.31;5726993;22;20048;-85
2024/01/16 11:22:41;;;;;;;2.50;0.80;;;;;;;-4.59;48.33;101654.44;5065931;28;20049;-85
2024/01/16 11:25:25;;;;;;;1.52;1.05;;;;;;;-4.60;47.54;101647.56;5063419;28;20048;-85
2024/01/16 11:27:54;;;;;;;2.97;1.45;;;;;;;-4.57;48.33;101641.22;5069008;28;20488;-84
2024/01/16 11:30:35;;;;;;;3.85;0.80;;;;;;;-4.53;48.17;101632.34;5069014;28;20048;-84
2024/01/16 11:33:07;;;;;;;3.10;1.10;;;;;;;-4.55;48.29;101637.22;5063659;28;20091;-84
2024/01/16 11:35:37;;;;;;;0.60;0.60;;;;;;;-4.61;48.27;101626.47;5066874;28;20049;-86
2024/01/16 11:38:08;;;;;;;3.28;0.85;;;;;;;-4.55;48.77;101633.81;5062328;28;20052;-86
2024/01/16 11:40:50;;;;;;;1.88;0.80;;;;;;;-4.57;49.24;101631.13;5062964;28;20110;-85
2024/01/16 11:43:40;;;;;;;1.03;0.50;;;;;;;-4.54;47.84;101620.44;5069197;28;20063;-85
2024/01/16 11:46:10;;;;;;;2.55;0.95;;;;;;;-4.55;47.85;101618.66;5066935;28;20091;-85
2024/01/16 11:48:39;;;;;;;1.63;0.90;;;;;;;-4.57;47.88;101615.97;5066684;28;20059;-85
2024/01/16 11:51:32;;;;;;;4.97;1.33;;;;;;;-4.56;48.41;101625.31;5068962;28;20052;-86
2024/01/16 11:54:01;;;;;;;2.78;1.50;;;;;;;-4.60;48.35;101609.69;5070919;28;20049;-86
2024/01/16 11:57:03;;;;;;;2.13;1.10;;;;;;;-4.57;49.37;101613.44;5067914;28;20058;-86
2024/01/16 12:00:12;;;;;;;2.78;1.35;;;;;;;-4.56;48.34;101607.63;5063296;28;20507;-86
2024/01/16 12:02:50;;;;;;;3.67;1.33;;;;;;;-4.55;49.14;101600.97;5068785;28;20507;-85
2024/01/16 12:05:19;;;;;;;1.42;0.75;;;;;;;-4.57;49.14;101600.81;5071077;28;20071;-86
2024/01/16 12:07:56;;;;;;;2.15;0.70;;;;;;;-4.60;48.98;101581.91;5065213;28;20088;-84
2024/01/16 12:10:27;;;;;;;0.80;0.70;;;;;;;-4.59;48.02;101589.66;5060018;28;20106;-85
2024/01/16 12:13:02;;;;;;;1.80;1.17;;;;;;;-4.58;49.17;101567.81;5052018;28;20065;-86
2024/01/16 12:15:37;;;;;;;2.78;1.10;;;;;;;-4.66;48.52;101555.28;5064598;28;20242;-85
2024/01/16 12:18:06;;;;;;;4.57;0.93;;;;;;;-4.61;49.67;101562.44;5070803;28;20092;-87
2024/01/16 12:20:36;;;;;;;1.13;0.85;;;;;;;-4.61;50.06;101560.81;5065232;28;20064;-86
2024/01/16 12:23:14;;;;;;;1.92;0.98;;;;;;;-4.67;48.56;101557.69;5068298;28;20049;-86